sensor_id;sensor_type;location;lat;lon;timestamp;temperature;humidity
55828;DHT22;41758;51.992;5.890;2023-03-19T00:01:12;16.50;59.90
55828;DHT22;41758;51.992;5.890;2023-03-19T00:03:38;16.30;61.30
55828;DHT22;41758;51.992;5.890;2023-03-19T00:06:04;16.00;62.20
55828;DHT22;41758;51.992;5.890;2023-03-19T00:08:30;15.90;62.40
55828;DHT22;41758;51.992;5.890;2023-03-19T00:10:55;15.80;62.80
55828;DHT22;41758;51.992;5.890;2023-03-19T00:13:21;15.70;63.00
55828;DHT22;41758;51.992;5.890;2023-03-19T00:15:46;15.60;63.90
55828;DHT22;41758;51.992;5.890;2023-03-19T00:18:12;15.60;64.20
55828;DHT22;41758;51.992;5.890;2023-03-19T00:20:39;15.50;64.90
55828;DHT22;41758;51.992;5.890;2023-03-19T00:23:04;15.60;65.10
55828;DHT22;41758;51.992;5.890;2023-03-19T00:25:31;15.50;65.50
55828;DHT22;41758;51.992;5.890;2023-03-19T00:27:58;15.40;65.60
55828;DHT22;41758;51.992;5.890;2023-03-19T00:30:23;15.40;65.60
55828;DHT22;41758;51.992;5.890;2023-03-19T00:32:49;15.40;65.60
55828;DHT22;41758;51.992;5.890;2023-03-19T00:35:15;15.40;65.80
55828;DHT22;41758;51.992;5.890;2023-03-19T00:37:41;15.50;65.90
55828;DHT22;41758;51.992;5.890;2023-03-19T00:40:07;15.50;66.00
55828;DHT22;41758;51.992;5.890;2023-03-19T00:42:34;15.50;66.20
55828;DHT22;41758;51.992;5.890;2023-03-19T00:45:01;15.50;66.50
55828;DHT22;41758;51.992;5.890;2023-03-19T00:47:26;15.50;66.60
55828;DHT22;41758;51.992;5.890;2023-03-19T00:49:52;15.40;66.60
55828;DHT22;41758;51.992;5.890;2023-03-19T00:52:18;15.40;66.80
55828;DHT22;41758;51.992;5.890;2023-03-19T00:54:44;15.40;67.00
55828;DHT22;41758;51.992;5.890;2023-03-19T00:57:09;15.40;67.30
55828;DHT22;41758;51.992;5.890;2023-03-19T00:59:35;15.40;67.30
55828;DHT22;41758;51.992;5.890;2023-03-19T01:02:02;15.40;67.30
55828;DHT22;41758;51.992;5.890;2023-03-19T01:04:28;15.40;67.40
55828;DHT22;41758;51.992;5.890;2023-03-19T01:06:53;15.40;67.50
55828;DHT22;41758;51.992;5.890;2023-03-19T01:09:19;15.30;67.70
55828;DHT22;41758;51.992;5.890;2023-03-19T01:11:45;15.30;67.70
55828;DHT22;41758;51.992;5.890;2023-03-19T01:14:11;15.30;67.90
55828;DHT22;41758;51.992;5.890;2023-03-19T01:16:37;15.30;68.00
55828;DHT22;41758;51.992;5.890;2023-03-19T01:19:04;15.30;68.00
55828;DHT22;41758;51.992;5.890;2023-03-19T01:21:30;15.30;68.10
55828;DHT22;41758;51.992;5.890;2023-03-19T01:23:57;15.30;68.30
55828;DHT22;41758;51.992;5.890;2023-03-19T01:26:24;15.30;68.20
55828;DHT22;41758;51.992;5.890;2023-03-19T01:28:54;15.30;68.30
55828;DHT22;41758;51.992;5.890;2023-03-19T01:31:21;15.30;68.30
55828;DHT22;41758;51.992;5.890;2023-03-19T01:34:05;15.30;68.50
55828;DHT22;41758;51.992;5.890;2023-03-19T01:36:40;15.30;68.50
55828;DHT22;41758;51.992;5.890;2023-03-19T01:39:07;15.20;68.50
55828;DHT22;41758;51.992;5.890;2023-03-19T01:41:33;15.20;68.60
55828;DHT22;41758;51.992;5.890;2023-03-19T01:44:31;15.20;68.60
55828;DHT22;41758;51.992;5.890;2023-03-19T01:47:33;15.10;68.50
55828;DHT22;41758;51.992;5.890;2023-03-19T01:50:39;15.10;68.50
55828;DHT22;41758;51.992;5.890;2023-03-19T01:53:27;15.10;68.50
55828;DHT22;41758;51.992;5.890;2023-03-19T01:56:35;15.00;68.60
55828;DHT22;41758;51.992;5.890;2023-03-19T01:59:19;15.10;68.70
55828;DHT22;41758;51.992;5.890;2023-03-19T02:02:15;15.00;68.60
55828;DHT22;41758;51.992;5.890;2023-03-19T02:04:46;15.10;68.70
55828;DHT22;41758;51.992;5.890;2023-03-19T02:07:13;15.10;68.70
55828;DHT22;41758;51.992;5.890;2023-03-19T02:09:40;15.10;68.70
55828;DHT22;41758;51.992;5.890;2023-03-19T02:12:07;15.10;68.80
55828;DHT22;41758;51.992;5.890;2023-03-19T02:14:33;15.10;68.80
55828;DHT22;41758;51.992;5.890;2023-03-19T02:16:59;15.20;68.90
55828;DHT22;41758;51.992;5.890;2023-03-19T02:19:48;15.20;68.90
55828;DHT22;41758;51.992;5.890;2023-03-19T02:22:18;15.20;68.90
55828;DHT22;41758;51.992;5.890;2023-03-19T02:25:02;15.20;69.10
55828;DHT22;41758;51.992;5.890;2023-03-19T02:27:31;15.30;69.10
55828;DHT22;41758;51.992;5.890;2023-03-19T02:29:57;15.30;69.20
55828;DHT22;41758;51.992;5.890;2023-03-19T02:32:23;15.30;69.20
55828;DHT22;41758;51.992;5.890;2023-03-19T02:34:49;15.30;69.20
55828;DHT22;41758;51.992;5.890;2023-03-19T02:37:29;15.30;69.20
55828;DHT22;41758;51.992;5.890;2023-03-19T02:40:16;15.30;69.00
55828;DHT22;41758;51.992;5.890;2023-03-19T02:42:43;15.40;69.00
55828;DHT22;41758;51.992;5.890;2023-03-19T02:45:09;15.40;69.10
55828;DHT22;41758;51.992;5.890;2023-03-19T02:47:35;15.40;69.10
55828;DHT22;41758;51.992;5.890;2023-03-19T02:50:01;15.40;69.20
55828;DHT22;41758;51.992;5.890;2023-03-19T02:52:26;15.40;69.20
55828;DHT22;41758;51.992;5.890;2023-03-19T02:54:52;15.40;69.20
55828;DHT22;41758;51.992;5.890;2023-03-19T02:57:18;15.40;69.20
55828;DHT22;41758;51.992;5.890;2023-03-19T02:59:43;15.40;69.10
55828;DHT22;41758;51.992;5.890;2023-03-19T03:02:10;15.40;69.30
55828;DHT22;41758;51.992;5.890;2023-03-19T03:04:36;15.30;69.40
55828;DHT22;41758;51.992;5.890;2023-03-19T03:07:03;15.30;69.50
55828;DHT22;41758;51.992;5.890;2023-03-19T03:09:28;15.30;69.70
55828;DHT22;41758;51.992;5.890;2023-03-19T03:11:55;15.30;69.70
55828;DHT22;41758;51.992;5.890;2023-03-19T03:14:21;15.30;69.80
55828;DHT22;41758;51.992;5.890;2023-03-19T03:16:47;15.30;69.80
55828;DHT22;41758;51.992;5.890;2023-03-19T03:19:13;15.30;69.70
55828;DHT22;41758;51.992;5.890;2023-03-19T03:21:40;15.30;69.80
55828;DHT22;41758;51.992;5.890;2023-03-19T03:24:06;15.30;70.00
55828;DHT22;41758;51.992;5.890;2023-03-19T03:26:31;15.30;70.10
55828;DHT22;41758;51.992;5.890;2023-03-19T03:28:59;15.30;70.10
55828;DHT22;41758;51.992;5.890;2023-03-19T03:31:25;15.40;70.10
55828;DHT22;41758;51.992;5.890;2023-03-19T03:33:51;15.40;70.10
55828;DHT22;41758;51.992;5.890;2023-03-19T03:36:17;15.40;70.00
55828;DHT22;41758;51.992;5.890;2023-03-19T03:38:44;15.40;70.00
55828;DHT22;41758;51.992;5.890;2023-03-19T03:41:09;15.40;70.10
55828;DHT22;41758;51.992;5.890;2023-03-19T03:43:35;15.40;70.10
55828;DHT22;41758;51.992;5.890;2023-03-19T03:46:01;15.40;70.00
55828;DHT22;41758;51.992;5.890;2023-03-19T03:48:27;15.40;70.10
55828;DHT22;41758;51.992;5.890;2023-03-19T03:50:53;15.40;70.20
55828;DHT22;41758;51.992;5.890;2023-03-19T03:53:23;15.40;70.30
55828;DHT22;41758;51.992;5.890;2023-03-19T03:55:49;15.40;70.30
55828;DHT22;41758;51.992;5.890;2023-03-19T03:58:19;15.40;70.30
55828;DHT22;41758;51.992;5.890;2023-03-19T04:00:45;15.40;70.30
55828;DHT22;41758;51.992;5.890;2023-03-19T04:03:12;15.40;70.30
55828;DHT22;41758;51.992;5.890;2023-03-19T04:05:38;15.50;70.20
55828;DHT22;41758;51.992;5.890;2023-03-19T04:08:06;15.40;70.20
55828;DHT22;41758;51.992;5.890;2023-03-19T04:10:32;15.50;70.10
55828;DHT22;41758;51.992;5.890;2023-03-19T04:13:00;15.40;70.00
55828;DHT22;41758;51.992;5.890;2023-03-19T04:15:28;15.40;70.00
55828;DHT22;41758;51.992;5.890;2023-03-19T04:17:55;15.40;70.10
55828;DHT22;41758;51.992;5.890;2023-03-19T04:20:21;15.40;70.10
55828;DHT22;41758;51.992;5.890;2023-03-19T04:22:48;15.40;70.10
55828;DHT22;41758;51.992;5.890;2023-03-19T04:25:13;15.50;70.10
55828;DHT22;41758;51.992;5.890;2023-03-19T04:27:39;15.50;70.10
55828;DHT22;41758;51.992;5.890;2023-03-19T04:30:07;15.50;70.10
55828;DHT22;41758;51.992;5.890;2023-03-19T04:32:34;15.60;70.10
55828;DHT22;41758;51.992;5.890;2023-03-19T04:35:01;15.60;70.00
55828;DHT22;41758;51.992;5.890;2023-03-19T04:37:28;15.60;69.90
55828;DHT22;41758;51.992;5.890;2023-03-19T04:39:53;15.60;69.90
55828;DHT22;41758;51.992;5.890;2023-03-19T04:42:20;15.60;69.80
55828;DHT22;41758;51.992;5.890;2023-03-19T04:44:59;15.60;69.90
55828;DHT22;41758;51.992;5.890;2023-03-19T04:47:25;15.60;69.90
55828;DHT22;41758;51.992;5.890;2023-03-19T04:49:55;15.60;69.90
55828;DHT22;41758;51.992;5.890;2023-03-19T04:52:23;15.50;69.80
55828;DHT22;41758;51.992;5.890;2023-03-19T04:54:49;15.50;69.80
55828;DHT22;41758;51.992;5.890;2023-03-19T04:57:15;15.50;69.90
55828;DHT22;41758;51.992;5.890;2023-03-19T04:59:43;15.50;70.00
55828;DHT22;41758;51.992;5.890;2023-03-19T05:02:12;15.50;70.00
55828;DHT22;41758;51.992;5.890;2023-03-19T05:04:38;15.50;69.80
55828;DHT22;41758;51.992;5.890;2023-03-19T05:07:07;15.50;69.90
55828;DHT22;41758;51.992;5.890;2023-03-19T05:09:35;15.50;70.00
55828;DHT22;41758;51.992;5.890;2023-03-19T05:12:00;15.50;70.00
55828;DHT22;41758;51.992;5.890;2023-03-19T05:14:30;15.40;70.10
55828;DHT22;41758;51.992;5.890;2023-03-19T05:17:24;15.40;70.00
55828;DHT22;41758;51.992;5.890;2023-03-19T05:20:13;15.40;69.90
55828;DHT22;41758;51.992;5.890;2023-03-19T05:22:46;15.30;69.90
55828;DHT22;41758;51.992;5.890;2023-03-19T05:25:14;15.30;70.00
55828;DHT22;41758;51.992;5.890;2023-03-19T05:27:40;15.30;70.20
55828;DHT22;41758;51.992;5.890;2023-03-19T05:30:09;15.30;70.20
55828;DHT22;41758;51.992;5.890;2023-03-19T05:33:02;15.30;70.20
55828;DHT22;41758;51.992;5.890;2023-03-19T05:35:48;15.20;70.10
55828;DHT22;41758;51.992;5.890;2023-03-19T05:38:21;15.30;70.20
55828;DHT22;41758;51.992;5.890;2023-03-19T05:40:54;15.20;70.20
55828;DHT22;41758;51.992;5.890;2023-03-19T05:43:26;15.20;70.20
55828;DHT22;41758;51.992;5.890;2023-03-19T05:45:52;15.30;70.20
55828;DHT22;41758;51.992;5.890;2023-03-19T05:48:21;15.20;70.20
55828;DHT22;41758;51.992;5.890;2023-03-19T05:50:48;15.20;70.00
55828;DHT22;41758;51.992;5.890;2023-03-19T05:53:18;15.20;70.10
55828;DHT22;41758;51.992;5.890;2023-03-19T05:55:56;15.20;70.10
55828;DHT22;41758;51.992;5.890;2023-03-19T05:58:22;15.20;70.20
55828;DHT22;41758;51.992;5.890;2023-03-19T06:00:48;15.20;70.40
55828;DHT22;41758;51.992;5.890;2023-03-19T06:03:15;15.10;70.30
55828;DHT22;41758;51.992;5.890;2023-03-19T06:05:51;15.20;70.40
55828;DHT22;41758;51.992;5.890;2023-03-19T06:08:30;15.20;70.50
55828;DHT22;41758;51.992;5.890;2023-03-19T06:11:05;15.20;70.60
55828;DHT22;41758;51.992;5.890;2023-03-19T06:13:32;15.20;70.60
55828;DHT22;41758;51.992;5.890;2023-03-19T06:16:00;15.30;70.50
55828;DHT22;41758;51.992;5.890;2023-03-19T06:18:32;15.20;70.00
55828;DHT22;41758;51.992;5.890;2023-03-19T06:21:05;15.10;69.80
55828;DHT22;41758;51.992;5.890;2023-03-19T06:23:30;15.10;70.00
55828;DHT22;41758;51.992;5.890;2023-03-19T06:25:56;15.10;70.20
55828;DHT22;41758;51.992;5.890;2023-03-19T06:28:24;15.10;69.90
55828;DHT22;41758;51.992;5.890;2023-03-19T06:30:53;15.10;69.90
55828;DHT22;41758;51.992;5.890;2023-03-19T06:33:37;15.10;70.10
55828;DHT22;41758;51.992;5.890;2023-03-19T06:36:03;15.10;70.10
55828;DHT22;41758;51.992;5.890;2023-03-19T06:38:31;15.10;70.30
55828;DHT22;41758;51.992;5.890;2023-03-19T06:40:57;15.10;70.20
55828;DHT22;41758;51.992;5.890;2023-03-19T06:43:23;15.20;70.10
55828;DHT22;41758;51.992;5.890;2023-03-19T06:45:48;15.20;70.10
55828;DHT22;41758;51.992;5.890;2023-03-19T06:48:14;15.20;70.20
55828;DHT22;41758;51.992;5.890;2023-03-19T06:50:40;15.20;70.00
55828;DHT22;41758;51.992;5.890;2023-03-19T06:53:06;15.20;69.80
55828;DHT22;41758;51.992;5.890;2023-03-19T06:55:32;15.20;69.90
55828;DHT22;41758;51.992;5.890;2023-03-19T06:57:58;15.20;69.90
55828;DHT22;41758;51.992;5.890;2023-03-19T07:00:24;15.20;70.00
55828;DHT22;41758;51.992;5.890;2023-03-19T07:02:50;15.20;69.90
55828;DHT22;41758;51.992;5.890;2023-03-19T07:05:15;15.30;70.10
55828;DHT22;41758;51.992;5.890;2023-03-19T07:07:41;15.30;69.70
55828;DHT22;41758;51.992;5.890;2023-03-19T07:10:08;15.30;69.80
55828;DHT22;41758;51.992;5.890;2023-03-19T07:12:34;15.30;70.00
55828;DHT22;41758;51.992;5.890;2023-03-19T07:14:59;15.30;69.90
55828;DHT22;41758;51.992;5.890;2023-03-19T07:17:25;15.30;69.50
55828;DHT22;41758;51.992;5.890;2023-03-19T07:19:51;15.30;69.10
55828;DHT22;41758;51.992;5.890;2023-03-19T07:22:17;15.30;68.90
55828;DHT22;41758;51.992;5.890;2023-03-19T07:24:43;15.30;69.10
55828;DHT22;41758;51.992;5.890;2023-03-19T07:27:09;15.30;69.00
55828;DHT22;41758;51.992;5.890;2023-03-19T07:29:35;15.30;69.10
55828;DHT22;41758;51.992;5.890;2023-03-19T07:32:01;15.30;69.00
55828;DHT22;41758;51.992;5.890;2023-03-19T07:34:27;15.40;69.20
55828;DHT22;41758;51.992;5.890;2023-03-19T07:36:53;15.40;69.10
55828;DHT22;41758;51.992;5.890;2023-03-19T07:39:19;15.50;68.70
55828;DHT22;41758;51.992;5.890;2023-03-19T07:41:46;15.50;68.70
55828;DHT22;41758;51.992;5.890;2023-03-19T07:44:15;15.50;68.60
55828;DHT22;41758;51.992;5.890;2023-03-19T07:46:41;15.50;68.40
55828;DHT22;41758;51.992;5.890;2023-03-19T07:49:07;15.60;68.70
55828;DHT22;41758;51.992;5.890;2023-03-19T07:51:33;15.60;68.70
55828;DHT22;41758;51.992;5.890;2023-03-19T07:53:59;15.60;68.80
55828;DHT22;41758;51.992;5.890;2023-03-19T07:56:24;15.70;68.00
55828;DHT22;41758;51.992;5.890;2023-03-19T07:58:51;15.70;67.40
55828;DHT22;41758;51.992;5.890;2023-03-19T08:01:17;15.60;66.70
55828;DHT22;41758;51.992;5.890;2023-03-19T08:03:43;15.60;67.20
55828;DHT22;41758;51.992;5.890;2023-03-19T08:06:09;15.50;67.30
55828;DHT22;41758;51.992;5.890;2023-03-19T08:08:35;15.60;67.40
55828;DHT22;41758;51.992;5.890;2023-03-19T08:11:02;15.60;67.70
55828;DHT22;41758;51.992;5.890;2023-03-19T08:13:28;15.60;67.50
55828;DHT22;41758;51.992;5.890;2023-03-19T08:15:54;15.60;67.90
55828;DHT22;41758;51.992;5.890;2023-03-19T08:18:21;15.70;67.90
55828;DHT22;41758;51.992;5.890;2023-03-19T08:20:47;15.80;67.30
55828;DHT22;41758;51.992;5.890;2023-03-19T08:23:13;15.80;66.80
55828;DHT22;41758;51.992;5.890;2023-03-19T08:25:39;15.70;67.00
55828;DHT22;41758;51.992;5.890;2023-03-19T08:28:05;15.70;67.20
55828;DHT22;41758;51.992;5.890;2023-03-19T08:30:30;15.80;67.30
55828;DHT22;41758;51.992;5.890;2023-03-19T08:32:56;15.80;67.70
55828;DHT22;41758;51.992;5.890;2023-03-19T08:35:23;15.90;67.70
55828;DHT22;41758;51.992;5.890;2023-03-19T08:37:51;15.90;67.50
55828;DHT22;41758;51.992;5.890;2023-03-19T08:40:17;16.00;67.40
55828;DHT22;41758;51.992;5.890;2023-03-19T08:42:43;16.10;67.60
55828;DHT22;41758;51.992;5.890;2023-03-19T08:45:10;16.10;67.30
55828;DHT22;41758;51.992;5.890;2023-03-19T08:47:36;16.10;67.40
55828;DHT22;41758;51.992;5.890;2023-03-19T08:50:02;16.20;67.00
55828;DHT22;41758;51.992;5.890;2023-03-19T08:52:28;16.30;66.90
55828;DHT22;41758;51.992;5.890;2023-03-19T08:54:54;16.30;66.90
55828;DHT22;41758;51.992;5.890;2023-03-19T08:57:20;16.30;66.90
55828;DHT22;41758;51.992;5.890;2023-03-19T08:59:46;16.40;66.60
55828;DHT22;41758;51.992;5.890;2023-03-19T09:02:12;16.50;66.90
55828;DHT22;41758;51.992;5.890;2023-03-19T09:04:42;16.60;66.40
55828;DHT22;41758;51.992;5.890;2023-03-19T09:07:08;16.60;65.90
55828;DHT22;41758;51.992;5.890;2023-03-19T09:09:39;16.60;65.90
55828;DHT22;41758;51.992;5.890;2023-03-19T09:12:06;16.70;66.40
55828;DHT22;41758;51.992;5.890;2023-03-19T09:14:33;16.80;66.50
55828;DHT22;41758;51.992;5.890;2023-03-19T09:16:59;16.80;66.10
55828;DHT22;41758;51.992;5.890;2023-03-19T09:19:25;16.80;66.00
55828;DHT22;41758;51.992;5.890;2023-03-19T09:21:50;16.80;66.00
55828;DHT22;41758;51.992;5.890;2023-03-19T09:24:16;16.90;66.10
55828;DHT22;41758;51.992;5.890;2023-03-19T09:26:43;16.90;66.10
55828;DHT22;41758;51.992;5.890;2023-03-19T09:29:09;17.00;66.30
55828;DHT22;41758;51.992;5.890;2023-03-19T09:31:36;17.00;65.60
55828;DHT22;41758;51.992;5.890;2023-03-19T09:34:02;17.00;65.40
55828;DHT22;41758;51.992;5.890;2023-03-19T09:36:28;16.90;64.80
55828;DHT22;41758;51.992;5.890;2023-03-19T09:38:53;16.90;64.90
55828;DHT22;41758;51.992;5.890;2023-03-19T09:44:10;16.90;65.50
55828;DHT22;41758;51.992;5.890;2023-03-19T09:49:45;17.00;65.40
55828;DHT22;41758;51.992;5.890;2023-03-19T09:55:12;17.00;65.20
55828;DHT22;41758;51.992;5.890;2023-03-19T09:57:38;17.00;64.70
55828;DHT22;41758;51.992;5.890;2023-03-19T10:02:42;17.00;64.60
55828;DHT22;41758;51.992;5.890;2023-03-19T10:08:56;17.10;63.90
55828;DHT22;41758;51.992;5.890;2023-03-19T10:11:12;17.10;64.50
55828;DHT22;41758;51.992;5.890;2023-03-19T10:16:38;17.30;65.10
55828;DHT22;41758;51.992;5.890;2023-03-19T10:19:07;17.50;64.90
55828;DHT22;41758;51.992;5.890;2023-03-19T10:21:41;17.50;63.80
55828;DHT22;41758;51.992;5.890;2023-03-19T10:26:44;17.60;62.50
55828;DHT22;41758;51.992;5.890;2023-03-19T10:29:15;17.60;63.10
55828;DHT22;41758;51.992;5.890;2023-03-19T10:31:52;17.80;63.80
55828;DHT22;41758;51.992;5.890;2023-03-19T10:34:34;17.90;61.80
55828;DHT22;41758;51.992;5.890;2023-03-19T10:37:12;17.90;62.10
55828;DHT22;41758;51.992;5.890;2023-03-19T10:39:40;17.90;61.70
55828;DHT22;41758;51.992;5.890;2023-03-19T10:43:21;18.10;62.20
55828;DHT22;41758;51.992;5.890;2023-03-19T10:45:27;18.30;61.70
55828;DHT22;41758;51.992;5.890;2023-03-19T10:47:55;18.40;61.50
55828;DHT22;41758;51.992;5.890;2023-03-19T10:50:33;18.70;61.40
55828;DHT22;41758;51.992;5.890;2023-03-19T10:58:27;19.50;58.10
55828;DHT22;41758;51.992;5.890;2023-03-19T11:01:07;19.70;58.50
55828;DHT22;41758;51.992;5.890;2023-03-19T11:06:18;20.60;55.90
55828;DHT22;41758;51.992;5.890;2023-03-19T11:08:56;21.10;56.90
55828;DHT22;41758;51.992;5.890;2023-03-19T11:11:46;21.80;57.00
55828;DHT22;41758;51.992;5.890;2023-03-19T11:14:28;22.70;56.30
55828;DHT22;41758;51.992;5.890;2023-03-19T11:17:01;23.30;53.30
55828;DHT22;41758;51.992;5.890;2023-03-19T11:19:33;23.90;54.10
55828;DHT22;41758;51.992;5.890;2023-03-19T11:22:14;24.70;53.20
55828;DHT22;41758;51.992;5.890;2023-03-19T11:24:47;25.50;50.60
55828;DHT22;41758;51.992;5.890;2023-03-19T11:27:13;26.10;48.90
55828;DHT22;41758;51.992;5.890;2023-03-19T11:29:43;26.40;44.10
55828;DHT22;41758;51.992;5.890;2023-03-19T11:35:00;26.10;42.70
55828;DHT22;41758;51.992;5.890;2023-03-19T11:40:30;26.60;44.80
55828;DHT22;41758;51.992;5.890;2023-03-19T11:51:48;25.50;43.50
55828;DHT22;41758;51.992;5.890;2023-03-19T12:00:07;24.20;48.70
55828;DHT22;41758;51.992;5.890;2023-03-19T12:02:58;23.80;47.80
55828;DHT22;41758;51.992;5.890;2023-03-19T12:16:36;21.70;52.00
55828;DHT22;41758;51.992;5.890;2023-03-19T12:35:23;20.70;55.10
55828;DHT22;41758;51.992;5.890;2023-03-19T12:40:44;21.20;54.60
55828;DHT22;41758;51.992;5.890;2023-03-19T12:43:47;21.60;55.00
55828;DHT22;41758;51.992;5.890;2023-03-19T12:46:24;21.90;52.70
55828;DHT22;41758;51.992;5.890;2023-03-19T12:48:56;22.20;54.00
55828;DHT22;41758;51.992;5.890;2023-03-19T12:51:27;22.40;52.30
55828;DHT22;41758;51.992;5.890;2023-03-19T12:56:38;22.50;51.50
55828;DHT22;41758;51.992;5.890;2023-03-19T13:01:48;22.30;52.10
55828;DHT22;41758;51.992;5.890;2023-03-19T13:04:32;22.30;52.50
55828;DHT22;41758;51.992;5.890;2023-03-19T13:07:05;22.20;51.20
55828;DHT22;41758;51.992;5.890;2023-03-19T13:09:52;22.00;51.50
55828;DHT22;41758;51.992;5.890;2023-03-19T13:12:22;21.90;52.00
55828;DHT22;41758;51.992;5.890;2023-03-19T13:15:04;21.80;51.00
55828;DHT22;41758;51.992;5.890;2023-03-19T13:18:00;21.70;51.30
55828;DHT22;41758;51.992;5.890;2023-03-19T13:20:55;21.50;51.20
55828;DHT22;41758;51.992;5.890;2023-03-19T13:23:26;21.60;52.20
55828;DHT22;41758;51.992;5.890;2023-03-19T13:25:55;21.70;53.60
55828;DHT22;41758;51.992;5.890;2023-03-19T13:36:27;22.40;51.70
55828;DHT22;41758;51.992;5.890;2023-03-19T13:38:54;22.40;49.70
55828;DHT22;41758;51.992;5.890;2023-03-19T14:01:04;21.70;47.80
55828;DHT22;41758;51.992;5.890;2023-03-19T14:03:31;21.50;49.40
55828;DHT22;41758;51.992;5.890;2023-03-19T14:05:58;21.40;49.80
55828;DHT22;41758;51.992;5.890;2023-03-19T14:08:44;21.40;49.00
55828;DHT22;41758;51.992;5.890;2023-03-19T14:11:30;21.40;49.10
55828;DHT22;41758;51.992;5.890;2023-03-19T14:14:00;21.30;49.50
55828;DHT22;41758;51.992;5.890;2023-03-19T14:16:33;21.40;50.00
55828;DHT22;41758;51.992;5.890;2023-03-19T14:19:01;21.40;49.90
55828;DHT22;41758;51.992;5.890;2023-03-19T14:24:27;21.30;48.30
55828;DHT22;41758;51.992;5.890;2023-03-19T14:26:53;21.20;49.20
55828;DHT22;41758;51.992;5.890;2023-03-19T14:29:21;21.00;49.90
55828;DHT22;41758;51.992;5.890;2023-03-19T14:31:53;21.00;50.30
55828;DHT22;41758;51.992;5.890;2023-03-19T14:34:37;20.90;51.00
55828;DHT22;41758;51.992;5.890;2023-03-19T14:37:24;20.80;49.90
55828;DHT22;41758;51.992;5.890;2023-03-19T14:43:02;20.70;49.30
55828;DHT22;41758;51.992;5.890;2023-03-19T14:45:59;20.60;50.30
55828;DHT22;41758;51.992;5.890;2023-03-19T14:51:27;20.50;50.40
55828;DHT22;41758;51.992;5.890;2023-03-19T14:54:03;20.40;50.80
55828;DHT22;41758;51.992;5.890;2023-03-19T14:56:34;20.40;51.40
55828;DHT22;41758;51.992;5.890;2023-03-19T14:59:01;20.30;52.00
55828;DHT22;41758;51.992;5.890;2023-03-19T15:01:33;20.30;50.00
55828;DHT22;41758;51.992;5.890;2023-03-19T15:04:08;20.20;50.90
55828;DHT22;41758;51.992;5.890;2023-03-19T15:06:43;20.10;50.80
55828;DHT22;41758;51.992;5.890;2023-03-19T15:09:30;20.20;50.60
55828;DHT22;41758;51.992;5.890;2023-03-19T15:17:27;20.20;50.80
55828;DHT22;41758;51.992;5.890;2023-03-19T15:19:54;20.30;50.70
55828;DHT22;41758;51.992;5.890;2023-03-19T15:22:31;20.30;51.20
55828;DHT22;41758;51.992;5.890;2023-03-19T15:25:13;20.40;50.40
55828;DHT22;41758;51.992;5.890;2023-03-19T15:27:41;20.40;50.30
55828;DHT22;41758;51.992;5.890;2023-03-19T15:30:21;20.50;50.50
55828;DHT22;41758;51.992;5.890;2023-03-19T15:32:47;20.50;49.60
55828;DHT22;41758;51.992;5.890;2023-03-19T15:35:13;20.40;49.40
55828;DHT22;41758;51.992;5.890;2023-03-19T15:37:41;20.50;49.40
55828;DHT22;41758;51.992;5.890;2023-03-19T15:40:13;20.40;49.80
55828;DHT22;41758;51.992;5.890;2023-03-19T15:42:40;20.40;49.80
55828;DHT22;41758;51.992;5.890;2023-03-19T15:45:12;20.40;50.10
55828;DHT22;41758;51.992;5.890;2023-03-19T15:47:53;20.40;50.70
55828;DHT22;41758;51.992;5.890;2023-03-19T15:50:24;20.50;51.40
55828;DHT22;41758;51.992;5.890;2023-03-19T15:52:58;20.50;52.00
55828;DHT22;41758;51.992;5.890;2023-03-19T15:55:25;20.50;52.10
55828;DHT22;41758;51.992;5.890;2023-03-19T15:57:52;20.40;50.80
55828;DHT22;41758;51.992;5.890;2023-03-19T16:00:19;20.20;50.40
55828;DHT22;41758;51.992;5.890;2023-03-19T16:02:48;20.10;50.60
55828;DHT22;41758;51.992;5.890;2023-03-19T16:05:25;20.00;50.80
55828;DHT22;41758;51.992;5.890;2023-03-19T16:08:00;19.90;52.10
55828;DHT22;41758;51.992;5.890;2023-03-19T16:10:35;19.90;51.90
55828;DHT22;41758;51.992;5.890;2023-03-19T16:13:03;19.70;51.20
55828;DHT22;41758;51.992;5.890;2023-03-19T16:15:46;19.60;51.50
55828;DHT22;41758;51.992;5.890;2023-03-19T16:23:30;19.60;52.10
55828;DHT22;41758;51.992;5.890;2023-03-19T16:25:56;19.60;52.20
55828;DHT22;41758;51.992;5.890;2023-03-19T16:28:27;19.60;52.60
55828;DHT22;41758;51.992;5.890;2023-03-19T16:30:53;19.50;51.10
55828;DHT22;41758;51.992;5.890;2023-03-19T16:33:18;19.40;51.60
55828;DHT22;41758;51.992;5.890;2023-03-19T16:35:45;19.40;51.20
55828;DHT22;41758;51.992;5.890;2023-03-19T16:38:17;19.30;51.60
55828;DHT22;41758;51.992;5.890;2023-03-19T16:40:48;19.30;52.00
55828;DHT22;41758;51.992;5.890;2023-03-19T16:43:21;19.20;52.20
55828;DHT22;41758;51.992;5.890;2023-03-19T16:46:07;19.20;51.80
55828;DHT22;41758;51.992;5.890;2023-03-19T16:48:37;19.00;51.60
55828;DHT22;41758;51.992;5.890;2023-03-19T16:51:03;19.00;51.50
55828;DHT22;41758;51.992;5.890;2023-03-19T16:53:30;18.90;51.80
55828;DHT22;41758;51.992;5.890;2023-03-19T16:55:57;18.80;51.90
55828;DHT22;41758;51.992;5.890;2023-03-19T16:58:27;18.80;52.20
55828;DHT22;41758;51.992;5.890;2023-03-19T17:00:54;18.70;51.40
55828;DHT22;41758;51.992;5.890;2023-03-19T17:03:20;18.60;51.80
55828;DHT22;41758;51.992;5.890;2023-03-19T17:05:46;18.60;52.10
55828;DHT22;41758;51.992;5.890;2023-03-19T17:08:13;18.40;52.30
55828;DHT22;41758;51.992;5.890;2023-03-19T17:10:42;18.40;52.30
55828;DHT22;41758;51.992;5.890;2023-03-19T17:13:16;18.30;52.30
55828;DHT22;41758;51.992;5.890;2023-03-19T17:15:42;18.20;52.70
55828;DHT22;41758;51.992;5.890;2023-03-19T17:18:35;18.20;53.20
55828;DHT22;41758;51.992;5.890;2023-03-19T17:23:27;18.10;53.70
55828;DHT22;41758;51.992;5.890;2023-03-19T17:25:55;18.00;54.00
55828;DHT22;41758;51.992;5.890;2023-03-19T17:28:21;18.00;54.20
55828;DHT22;41758;51.992;5.890;2023-03-19T17:30:48;17.90;54.40
55828;DHT22;41758;51.992;5.890;2023-03-19T17:33:23;17.90;54.70
55828;DHT22;41758;51.992;5.890;2023-03-19T17:35:51;17.80;55.20
55828;DHT22;41758;51.992;5.890;2023-03-19T17:38:18;17.80;56.80
55828;DHT22;41758;51.992;5.890;2023-03-19T17:40:45;17.80;57.10
55828;DHT22;41758;51.992;5.890;2023-03-19T17:43:12;17.80;57.50
55828;DHT22;41758;51.992;5.890;2023-03-19T17:45:40;17.90;57.70
55828;DHT22;41758;51.992;5.890;2023-03-19T17:48:14;17.90;57.70
55828;DHT22;41758;51.992;5.890;2023-03-19T17:50:41;17.90;57.50
55828;DHT22;41758;51.992;5.890;2023-03-19T17:53:10;18.00;57.40
55828;DHT22;41758;51.992;5.890;2023-03-19T17:55:36;17.90;57.20
55828;DHT22;41758;51.992;5.890;2023-03-19T17:58:02;17.90;56.50
55828;DHT22;41758;51.992;5.890;2023-03-19T18:00:28;17.80;56.80
55828;DHT22;41758;51.992;5.890;2023-03-19T18:02:54;17.80;56.30